Time;durP1;ratioP1;P1;durP2;ratioP2;P2;SDS_P1;SDS_P2;PMS_P1;PMS_P2;Temp;Humidity;BMP_temperature;BMP_pressure;BME280_temperature;BME280_humidity;BME280_pressure;Samples;Min_cycle;Max_cycle;Signal;HPM_P1;HPM_P2
2024/01/14 00:00:32;;;;;;;6.20;3.30;;;;;;;;;;103754;1292;544642;-74
2024/01/14 00:04:02;;;;;;;6.20;3.30;;;;;;;;;;103644;1292;544929;-72
2024/01/14 00:07:41;;;;;;;6.60;3.50;;;;;;;;;;104089;1289;544920;-73
2024/01/14 00:11:17;;;;;;;6.50;3.20;;;;;;;;;;103938;1288;545415;-70
2024/01/14 00:14:57;;;;;;;5.80;3.00;;;;;;;;;;103753;1290;545401;-74
2024/01/14 00:18:32;;;;;;;6.80;3.60;;;;;;;;;;103731;1291;545061;-74
2024/01/14 00:22:16;;;;;;;7.30;3.70;;;;;;;;;;103445;1291;547800;-73
2024/01/14 00:25:47;;;;;;;7.30;3.50;;;;;;;;;;103721;1291;545034;-72
2024/01/14 00:29:24;;;;;;;6.70;3.30;;;;;;;;;;103710;1291;544992;-73
2024/01/14 00:33:03;;;;;;;7.10;3.70;;;;;;;;;;103685;1295;545417;-73
2024/01/14 00:36:40;;;;;;;7.30;4.10;;;;;;;;;;103704;1292;545540;-72
2024/01/14 00:40:37;;;;;;;6.60;3.20;;;;;;;;;;103636;1292;548001;-73
2024/01/14 00:43:54;;;;;;;6.80;3.40;;;;;;;;;;103694;1292;545356;-73
2024/01/14 00:47:31;;;;;;;6.40;3.20;;;;;;;;;;103677;1291;544856;-73
2024/01/14 00:51:09;;;;;;;7.60;3.80;;;;;;;;;;103492;1298;545655;-73
2024/01/14 00:54:42;;;;;;;7.60;3.90;;;;;;;;;;103649;1290;544760;-73
2024/01/14 00:58:24;;;;;;;7.70;3.80;;;;;;;;;;103734;1290;544986;-72
2024/01/14 01:02:07;;;;;;;7.70;3.80;;;;;;;;;;103442;1292;546454;-72
2024/01/14 01:05:39;;;;;;;7.10;3.30;;;;;;;;;;103673;1292;544859;-73
2024/01/14 01:09:16;;;;;;;6.90;3.30;;;;;;;;;;103774;1292;544863;-72
2024/01/14 01:12:55;;;;;;;7.40;3.50;;;;;;;;;;103735;1290;544986;-73
2024/01/14 01:16:31;;;;;;;7.30;3.30;;;;;;;;;;103587;1291;545141;-71
2024/01/14 01:20:09;;;;;;;7.70;3.60;;;;;;;;;;103719;1289;545465;-73
2024/01/14 01:23:52;;;;;;;7.00;3.50;;;;;;;;;;103710;1292;548401;-74
2024/01/14 01:27:25;;;;;;;9.00;3.70;;;;;;;;;;103747;1291;544960;-73
2024/01/14 01:30:57;;;;;;;7.30;3.40;;;;;;;;;;103793;1296;544776;-72
2024/01/14 01:34:39;;;;;;;7.80;3.40;;;;;;;;;;103774;1288;545192;-74
2024/01/14 01:38:16;;;;;;;7.50;3.50;;;;;;;;;;103815;1289;545517;-73
2024/01/14 01:41:54;;;;;;;6.90;3.20;;;;;;;;;;103792;1295;544802;-73
2024/01/14 01:45:31;;;;;;;6.60;2.80;;;;;;;;;;103826;1289;545532;-73
2024/01/14 01:49:10;;;;;;;6.80;3.40;;;;;;;;;;103935;1290;545780;-75
2024/01/14 01:52:46;;;;;;;6.80;3.20;;;;;;;;;;103774;1289;546030;-72
2024/01/14 01:56:25;;;;;;;7.50;3.20;;;;;;;;;;103759;1292;545013;-73
2024/01/14 02:00:02;;;;;;;7.00;3.00;;;;;;;;;;103783;1292;545423;-73
2024/01/14 02:03:39;;;;;;;8.10;3.20;;;;;;;;;;103517;1291;545561;-73
2024/01/14 02:07:16;;;;;;;5.90;2.70;;;;;;;;;;103726;1289;545089;-73
2024/01/14 02:10:53;;;;;;;7.20;2.90;;;;;;;;;;103588;1295;544734;-72
2024/01/14 02:14:31;;;;;;;6.50;2.70;;;;;;;;;;103748;1290;544834;-74
2024/01/14 02:18:09;;;;;;;7.00;3.00;;;;;;;;;;103653;1290;544866;-72
2024/01/14 02:21:48;;;;;;;7.90;3.60;;;;;;;;;;103822;1292;544814;-73
2024/01/14 02:25:24;;;;;;;7.40;3.10;;;;;;;;;;103762;1289;545321;-72
2024/01/14 02:29:07;;;;;;;7.10;3.00;;;;;;;;;;103487;1298;547924;-73
2024/01/14 02:32:38;;;;;;;8.10;2.90;;;;;;;;;;103711;1291;545429;-72
2024/01/14 02:36:12;;;;;;;7.50;2.80;;;;;;;;;;103938;1289;545409;-72
2024/01/14 02:39:54;;;;;;;7.10;2.30;;;;;;;;;;103735;1292;545638;-73
2024/01/14 02:43:31;;;;;;;5.80;2.40;;;;;;;;;;103746;1289;545385;-72
2024/01/14 02:47:08;;;;;;;7.10;2.60;;;;;;;;;;103585;1291;544987;-70
2024/01/14 02:50:45;;;;;;;7.20;3.00;;;;;;;;;;103721;1292;545296;-72
2024/01/14 02:54:23;;;;;;;7.40;2.70;;;;;;;;;;103655;1290;545344;-71
2024/01/14 02:58:00;;;;;;;6.20;2.70;;;;;;;;;;103739;1289;544963;-71
2024/01/14 03:01:47;;;;;;;5.90;2.40;;;;;;;;;;103712;1292;545970;-70
2024/01/14 03:05:15;;;;;;;5.10;2.10;;;;;;;;;;103750;1289;545519;-71
2024/01/14 03:08:53;;;;;;;6.40;2.40;;;;;;;;;;103732;1289;544892;-72
2024/01/14 03:12:30;;;;;;;4.50;1.90;;;;;;;;;;103755;1292;545198;-73
2024/01/14 03:16:08;;;;;;;6.10;2.70;;;;;;;;;;103665;1291;544874;-75
2024/01/14 03:19:45;;;;;;;6.10;2.50;;;;;;;;;;103807;1289;545020;-73
2024/01/14 03:23:23;;;;;;;4.40;2.00;;;;;;;;;;103732;1290;545745;-71
2024/01/14 03:27:00;;;;;;;3.70;1.70;;;;;;;;;;103730;1291;545299;-73
2024/01/14 03:30:37;;;;;;;5.00;2.00;;;;;;;;;;104791;1280;544757;-71
2024/01/14 03:34:14;;;;;;;4.50;1.90;;;;;;;;;;103841;1290;544841;-72
2024/01/14 03:37:53;;;;;;;4.80;2.00;;;;;;;;;;103889;1287;545022;-72
2024/01/14 03:41:35;;;;;;;5.40;2.10;;;;;;;;;;103675;1289;547823;-72
2024/01/14 03:45:07;;;;;;;4.80;1.90;;;;;;;;;;103736;1289;544960;-73
2024/01/14 03:48:45;;;;;;;4.40;1.90;;;;;;;;;;103714;1292;544958;-72
2024/01/14 03:52:22;;;;;;;5.20;2.20;;;;;;;;;;103613;1295;546232;-69
2024/01/14 03:55:59;;;;;;;4.20;1.70;;;;;;;;;;103780;1289;545511;-71
2024/01/14 03:59:37;;;;;;;3.80;1.80;;;;;;;;;;103629;1291;545485;-70
2024/01/14 04:03:14;;;;;;;5.00;2.00;;;;;;;;;;103693;1289;545623;-73
2024/01/14 04:06:53;;;;;;;5.40;2.10;;;;;;;;;;103658;1289;544805;-73
2024/01/14 04:10:29;;;;;;;5.90;2.20;;;;;;;;;;103735;1290;544900;-73
2024/01/14 04:14:07;;;;;;;4.80;1.70;;;;;;;;;;103757;1291;545362;-73
2024/01/14 04:17:44;;;;;;;5.40;2.10;;;;;;;;;;103646;1292;545230;-73
2024/01/14 04:21:22;;;;;;;5.70;2.30;;;;;;;;;;103776;1301;544983;-74
2024/01/14 04:24:59;;;;;;;5.30;1.90;;;;;;;;;;103901;1289;545575;-72
2024/01/14 04:28:37;;;;;;;5.00;2.00;;;;;;;;;;103441;1295;544747;-73
2024/01/14 04:32:14;;;;;;;5.60;2.20;;;;;;;;;;103622;1295;545349;-73
2024/01/14 04:35:53;;;;;;;4.80;2.10;;;;;;;;;;103752;1292;544754;-74
2024/01/14 04:39:29;;;;;;;4.60;2.10;;;;;;;;;;103761;1288;545652;-73
2024/01/14 04:43:08;;;;;;;5.30;2.30;;;;;;;;;;103739;1289;545587;-73
2024/01/14 04:46:45;;;;;;;4.60;1.90;;;;;;;;;;103753;1291;546022;-73
2024/01/14 04:50:22;;;;;;;5.40;2.40;;;;;;;;;;103803;1289;545719;-73
2024/01/14 04:53:59;;;;;;;6.10;2.20;;;;;;;;;;103685;1295;544713;-72
2024/01/14 04:57:37;;;;;;;3.80;1.70;;;;;;;;;;103722;1289;545156;-73
2024/01/14 05:01:14;;;;;;;5.00;2.00;;;;;;;;;;104589;1282;545505;-73
2024/01/14 05:04:51;;;;;;;5.20;2.40;;;;;;;;;;103758;1289;544926;-72
2024/01/14 05:08:28;;;;;;;5.70;2.40;;;;;;;;;;103692;1289;545384;-70
2024/01/14 05:12:06;;;;;;;4.40;1.80;;;;;;;;;;103777;1292;545073;-73
2024/01/14 05:15:44;;;;;;;4.50;2.00;;;;;;;;;;103795;1288;545946;-73
2024/01/14 05:19:22;;;;;;;5.40;2.40;;;;;;;;;;103728;1290;544749;-73
2024/01/14 05:22:58;;;;;;;5.20;2.30;;;;;;;;;;103808;1293;545490;-74
2024/01/14 05:26:40;;;;;;;5.10;2.10;;;;;;;;;;103841;1289;544965;-72
2024/01/14 05:30:10;;;;;;;3.80;1.70;;;;;;;;;;103952;1288;545022;-71
2024/01/14 05:33:51;;;;;;;4.10;1.90;;;;;;;;;;104589;1282;544905;-70
2024/01/14 05:37:28;;;;;;;4.90;2.10;;;;;;;;;;103773;1289;544930;-75
2024/01/14 05:41:06;;;;;;;5.40;2.20;;;;;;;;;;103508;1298;544953;-70
2024/01/14 05:44:39;;;;;;;4.40;1.90;;;;;;;;;;103752;1295;544772;-73
2024/01/14 05:48:18;;;;;;;5.30;2.20;;;;;;;;;;103826;1291;544965;-73
2024/01/14 05:51:58;;;;;;;4.80;2.00;;;;;;;;;;103721;1291;546714;-72
2024/01/14 05:55:36;;;;;;;6.00;2.00;;;;;;;;;;103748;1289;544975;-72
2024/01/14 05:59:09;;;;;;;4.40;2.00;;;;;;;;;;103872;1289;546306;-74
2024/01/14 06:02:51;;;;;;;4.70;2.10;;;;;;;;;;103714;1289;544784;-73
2024/01/14 06:06:28;;;;;;;4.60;1.90;;;;;;;;;;103759;1292;545319;-75
2024/01/14 06:10:02;;;;;;;5.20;2.00;;;;;;;;;;103787;1301;545039;-74
2024/01/14 06:13:43;;;;;;;4.20;1.90;;;;;;;;;;104580;1283;545325;-74
2024/01/14 06:17:21;;;;;;;4.30;1.90;;;;;;;;;;104096;1292;544984;-74
2024/01/14 06:21:01;;;;;;;4.20;1.90;;;;;;;;;;103471;1298;545001;-69
2024/01/14 06:24:37;;;;;;;4.90;2.00;;;;;;;;;;103724;1292;544963;-74
2024/01/14 06:28:13;;;;;;;4.10;1.80;;;;;;;;;;103727;1292;545418;-74
2024/01/14 06:31:51;;;;;;;4.00;1.80;;;;;;;;;;103701;1289;544858;-72
2024/01/14 06:35:24;;;;;;;4.80;1.90;;;;;;;;;;103710;1289;545368;-73
2024/01/14 06:39:05;;;;;;;4.90;1.80;;;;;;;;;;103744;1290;545659;-74
2024/01/14 06:42:43;;;;;;;4.20;1.80;;;;;;;;;;103557;1293;545331;-73
2024/01/14 06:46:20;;;;;;;4.20;1.90;;;;;;;;;;103714;1292;545432;-74
2024/01/14 06:50:04;;;;;;;4.50;1.90;;;;;;;;;;103469;1291;545215;-73
2024/01/14 06:53:35;;;;;;;4.90;2.00;;;;;;;;;;103729;1295;544947;-74
2024/01/14 06:57:13;;;;;;;5.70;2.20;;;;;;;;;;103700;1294;546099;-74
2024/01/14 07:00:50;;;;;;;5.60;2.40;;;;;;;;;;103710;1292;544777;-73
2024/01/14 07:04:28;;;;;;;6.50;2.10;;;;;;;;;;103741;1289;544988;-74
2024/01/14 07:08:06;;;;;;;5.50;2.30;;;;;;;;;;103679;1291;544866;-73
2024/01/14 07:11:43;;;;;;;6.00;2.60;;;;;;;;;;103902;1292;544959;-73
2024/01/14 07:15:21;;;;;;;6.20;2.60;;;;;;;;;;104002;1289;545411;-72
2024/01/14 07:19:00;;;;;;;5.70;2.70;;;;;;;;;;103654;1288;547960;-74
2024/01/14 07:22:36;;;;;;;7.90;3.50;;;;;;;;;;103710;1292;544901;-77
2024/01/14 07:26:16;;;;;;;6.30;2.90;;;;;;;;;;103730;1292;544961;-73
2024/01/14 07:29:51;;;;;;;6.30;2.70;;;;;;;;;;103745;1292;544972;-74
2024/01/14 07:33:27;;;;;;;7.80;3.60;;;;;;;;;;103513;1292;544850;-74
2024/01/14 07:37:06;;;;;;;8.90;4.40;;;;;;;;;;103801;1289;545083;-74
2024/01/14 07:40:44;;;;;;;6.60;3.10;;;;;;;;;;103585;1295;545552;-73
2024/01/14 07:44:21;;;;;;;6.30;2.50;;;;;;;;;;103796;1289;544978;-74
2024/01/14 07:47:57;;;;;;;8.50;3.20;;;;;;;;;;103639;1292;544861;-73
2024/01/14 07:51:35;;;;;;;7.50;2.50;;;;;;;;;;103703;1295;545011;-74
2024/01/14 07:55:12;;;;;;;7.60;2.90;;;;;;;;;;103660;1289;544985;-74
2024/01/14 07:58:50;;;;;;;7.10;3.00;;;;;;;;;;103643;1291;545265;-73
2024/01/14 08:02:26;;;;;;;7.10;3.00;;;;;;;;;;103649;1295;545191;-73
2024/01/14 08:06:05;;;;;;;8.20;3.00;;;;;;;;;;103625;1292;545042;-73
2024/01/14 08:09:42;;;;;;;6.50;2.60;;;;;;;;;;104097;1285;545540;-73
2024/01/14 08:13:20;;;;;;;6.20;2.80;;;;;;;;;;103695;1293;545835;-74
2024/01/14 08:16:57;;;;;;;6.60;3.10;;;;;;;;;;103795;1292;545875;-74
2024/01/14 08:20:32;;;;;;;8.00;3.40;;;;;;;;;;103856;1301;544894;-74
2024/01/14 08:24:18;;;;;;;8.40;3.10;;;;;;;;;;103605;1291;547836;-74
2024/01/14 08:27:51;;;;;;;7.70;2.90;;;;;;;;;;103694;1292;546290;-74
2024/01/14 08:31:26;;;;;;;6.30;2.70;;;;;;;;;;103618;1303;544936;-74
2024/01/14 08:35:04;;;;;;;7.50;3.30;;;;;;;;;;104191;1286;544890;-73
2024/01/14 08:39:18;;;;;;;6.50;2.60;;;;;;;;;;105156;1279;546134;-73
2024/01/14 08:42:25;;;;;;;5.60;2.10;;;;;;;;;;103602;1292;548039;-73
2024/01/14 08:46:02;;;;;;;4.90;2.20;;;;;;;;;;104108;1285;547995;-74
2024/01/14 08:49:34;;;;;;;5.80;2.40;;;;;;;;;;103697;1290;545607;-74
2024/01/14 08:53:11;;;;;;;5.60;2.50;;;;;;;;;;103727;1289;545669;-73
2024/01/14 08:56:49;;;;;;;6.60;2.90;;;;;;;;;;104621;1285;544884;-73
2024/01/14 09:00:26;;;;;;;6.90;2.50;;;;;;;;;;103553;1292;544998;-75
2024/01/14 09:04:03;;;;;;;4.80;2.20;;;;;;;;;;104081;1285;545102;-74
2024/01/14 09:07:41;;;;;;;5.80;2.40;;;;;;;;;;103701;1291;544711;-73
2024/01/14 09:11:19;;;;;;;6.60;3.00;;;;;;;;;;103726;1293;545470;-73
2024/01/14 09:14:56;;;;;;;9.20;4.10;;;;;;;;;;103553;1291;545080;-73
2024/01/14 09:18:34;;;;;;;10.00;4.70;;;;;;;;;;103805;1289;544886;-73
2024/01/14 09:22:11;;;;;;;7.80;3.50;;;;;;;;;;103704;1292;545330;-74
2024/01/14 09:25:49;;;;;;;16.80;9.80;;;;;;;;;;103790;1288;545398;-74
2024/01/14 09:29:26;;;;;;;10.80;5.10;;;;;;;;;;103677;1292;545057;-73
2024/01/14 09:33:04;;;;;;;11.40;6.20;;;;;;;;;;103721;1289;544727;-74
2024/01/14 09:36:41;;;;;;;7.40;3.80;;;;;;;;;;103458;1293;544814;-73
2024/01/14 09:40:25;;;;;;;10.90;4.50;;;;;;;;;;103639;1294;548016;-73
2024/01/14 09:43:57;;;;;;;7.90;3.60;;;;;;;;;;103677;1290;544660;-73
2024/01/14 09:47:34;;;;;;;7.70;3.80;;;;;;;;;;103767;1289;545412;-73
2024/01/14 09:51:12;;;;;;;8.10;3.60;;;;;;;;;;103896;1287;545011;-73
2024/01/14 09:54:54;;;;;;;7.30;3.30;;;;;;;;;;103576;1291;548595;-73
2024/01/14 09:58:26;;;;;;;6.90;2.90;;;;;;;;;;103860;1291;544793;-73
2024/01/14 10:02:06;;;;;;;6.90;3.00;;;;;;;;;;104145;1289;545394;-73
2024/01/14 10:05:42;;;;;;;6.80;3.00;;;;;;;;;;103746;1291;545061;-73
2024/01/14 10:09:16;;;;;;;8.70;4.60;;;;;;;;;;103824;1288;545028;-73
2024/01/14 10:12:56;;;;;;;11.50;6.70;;;;;;;;;;103423;1297;544943;-74
2024/01/14 10:16:38;;;;;;;5.90;2.90;;;;;;;;;;103693;1291;544813;-73
2024/01/14 10:20:11;;;;;;;6.40;2.60;;;;;;;;;;103706;1290;545549;-73
2024/01/14 10:23:49;;;;;;;7.20;3.50;;;;;;;;;;103801;1289;544977;-74
2024/01/14 10:27:26;;;;;;;6.10;2.80;;;;;;;;;;103810;1290;545442;-74
2024/01/14 10:31:01;;;;;;;6.90;2.90;;;;;;;;;;103786;1292;545431;-73
2024/01/14 10:34:41;;;;;;;7.20;3.20;;;;;;;;;;103677;1292;544919;-73
2024/01/14 10:38:22;;;;;;;6.40;2.50;;;;;;;;;;103949;1292;544949;-73
2024/01/14 10:41:55;;;;;;;5.90;2.40;;;;;;;;;;104021;1292;544957;-74
2024/01/14 10:45:34;;;;;;;5.40;2.40;;;;;;;;;;103740;1290;545033;-73
2024/01/14 10:49:11;;;;;;;6.50;2.80;;;;;;;;;;103706;1290;545245;-73
2024/01/14 10:52:52;;;;;;;6.00;2.90;;;;;;;;;;103905;1292;544851;-73
2024/01/14 10:56:31;;;;;;;7.30;3.40;;;;;;;;;;103675;1295;546174;-75
2024/01/14 11:00:05;;;;;;;7.10;3.00;;;;;;;;;;103782;1289;546569;-73
2024/01/14 11:03:42;;;;;;;7.90;3.20;;;;;;;;;;103607;1292;545786;-74
2024/01/14 11:07:22;;;;;;;12.00;7.80;;;;;;;;;;103714;1292;548075;-74
2024/01/14 11:10:53;;;;;;;10.00;5.90;;;;;;;;;;104028;1288;544922;-73
2024/01/14 11:14:46;;;;;;;6.50;2.50;;;;;;;;;;103607;1290;548011;-74
2024/01/14 11:18:15;;;;;;;7.70;4.20;;;;;;;;;;104103;1289;544852;-70
2024/01/14 11:21:59;;;;;;;7.80;3.90;;;;;;;;;;103828;1288;545693;-73
2024/01/14 11:25:32;;;;;;;10.30;4.80;;;;;;;;;;103666;1292;547973;-73
2024/01/14 11:29:03;;;;;;;13.10;6.30;;;;;;;;;;103685;1291;546224;-72
2024/01/14 11:33:16;;;;;;;11.30;5.90;;;;;;;;;;103776;1291;547764;-73
2024/01/14 11:36:37;;;;;;;21.50;14.40;;;;;;;;;;103741;1289;544916;-73
2024/01/14 11:40:14;;;;;;;10.10;4.60;;;;;;;;;;103929;1289;545552;-73
2024/01/14 11:43:35;;;;;;;16.70;10.70;;;;;;;;;;103707;1292;545101;-72
2024/01/14 11:47:10;;;;;;;13.80;7.60;;;;;;;;;;104016;1288;544964;-73
2024/01/14 11:50:50;;;;;;;9.70;5.50;;;;;;;;;;103730;1292;544987;-73
2024/01/14 11:54:25;;;;;;;10.40;5.40;;;;;;;;;;103816;1288;545479;-73
2024/01/14 11:58:16;;;;;;;7.90;3.90;;;;;;;;;;104019;1295;544819;-73
2024/01/14 12:01:39;;;;;;;8.10;4.70;;;;;;;;;;103727;1293;544927;-72
2024/01/14 12:05:21;;;;;;;9.90;5.30;;;;;;;;;;103798;1289;544794;-73
2024/01/14 12:09:01;;;;;;;8.40;4.20;;;;;;;;;;103734;1292;545337;-73
2024/01/14 12:12:36;;;;;;;9.10;4.60;;;;;;;;;;103796;1302;545170;-73
2024/01/14 12:16:09;;;;;;;9.70;5.20;;;;;;;;;;103703;1289;544795;-74
2024/01/14 12:19:57;;;;;;;7.40;3.90;;;;;;;;;;103642;1292;549581;-74
2024/01/14 12:23:24;;;;;;;10.70;5.30;;;;;;;;;;103573;1293;545010;-73
2024/01/14 12:27:02;;;;;;;10.70;5.80;;;;;;;;;;103706;1292;544977;-73
2024/01/14 12:30:39;;;;;;;8.90;5.00;;;;;;;;;;103821;1288;545511;-73
2024/01/14 12:34:23;;;;;;;10.10;5.30;;;;;;;;;;103537;1291;549335;-75
2024/01/14 12:37:54;;;;;;;11.00;6.60;;;;;;;;;;104004;1289;544959;-74
2024/01/14 12:41:34;;;;;;;9.30;4.30;;;;;;;;;;103554;1297;544618;-71
2024/01/14 12:45:12;;;;;;;6.90;3.20;;;;;;;;;;103659;1295;545109;-73
2024/01/14 12:48:47;;;;;;;8.00;4.10;;;;;;;;;;103669;1291;545974;-73
2024/01/14 12:52:44;;;;;;;6.70;3.20;;;;;;;;;;103610;1292;549405;-73
2024/01/14 12:56:12;;;;;;;6.70;3.10;;;;;;;;;;103833;1295;544826;-73
2024/01/14 12:59:39;;;;;;;7.30;3.50;;;;;;;;;;103609;1291;545191;-74
2024/01/14 13:03:17;;;;;;;10.10;4.60;;;;;;;;;;103655;1292;544971;-72
2024/01/14 13:07:00;;;;;;;8.20;3.80;;;;;;;;;;103478;1291;548120;-73
2024/01/14 13:10:37;;;;;;;12.80;6.20;;;;;;;;;;103536;1292;547956;-73
2024/01/14 13:14:09;;;;;;;14.70;7.00;;;;;;;;;;103682;1289;545256;-73
2024/01/14 13:17:47;;;;;;;16.10;6.70;;;;;;;;;;103754;1290;545453;-74
2024/01/14 13:21:24;;;;;;;9.40;5.40;;;;;;;;;;103956;1289;544918;-73
2024/01/14 13:25:02;;;;;;;26.80;9.50;;;;;;;;;;103718;1289;544967;-74
2024/01/14 13:28:40;;;;;;;41.70;13.90;;;;;;;;;;103712;1292;544959;-72
2024/01/14 13:32:18;;;;;;;16.10;6.20;;;;;;;;;;103799;1290;544976;-73
2024/01/14 13:35:55;;;;;;;16.70;6.70;;;;;;;;;;103734;1289;545258;-73
2024/01/14 13:39:31;;;;;;;29.10;11.10;;;;;;;;;;103753;1288;545192;-73
2024/01/14 13:43:09;;;;;;;14.50;5.80;;;;;;;;;;103795;1294;544908;-73
2024/01/14 13:46:46;;;;;;;20.20;7.80;;;;;;;;;;103726;1290;545691;-73
2024/01/14 13:50:29;;;;;;;9.80;4.00;;;;;;;;;;103558;1293;547771;-74
2024/01/14 13:54:07;;;;;;;29.10;9.70;;;;;;;;;;103697;1292;548008;-74
2024/01/14 13:57:39;;;;;;;16.30;6.60;;;;;;;;;;103746;1291;546040;-73
2024/01/14 14:01:16;;;;;;;21.90;9.10;;;;;;;;;;103735;1291;546424;-73
2024/01/14 14:04:59;;;;;;;31.00;13.50;;;;;;;;;;103658;1292;548057;-73
2024/01/14 14:08:31;;;;;;;16.90;9.00;;;;;;;;;;103881;1295;545764;-73
2024/01/14 14:12:15;;;;;;;15.70;6.60;;;;;;;;;;103612;1290;548610;-73
2024/01/14 14:15:46;;;;;;;16.30;7.90;;;;;;;;;;103781;1290;544761;-73
2024/01/14 14:19:23;;;;;;;14.70;7.10;;;;;;;;;;103673;1292;544977;-74
2024/01/14 14:23:02;;;;;;;31.70;15.30;;;;;;;;;;103824;1289;544856;-74
2024/01/14 14:26:34;;;;;;;14.70;7.80;;;;;;;;;;103803;1288;545041;-73
2024/01/14 14:30:15;;;;;;;17.10;7.40;;;;;;;;;;103669;1292;544950;-73
2024/01/14 14:33:53;;;;;;;16.20;8.40;;;;;;;;;;103711;1295;544873;-73
2024/01/14 14:37:31;;;;;;;55.70;27.40;;;;;;;;;;103798;1292;545947;-74
2024/01/14 14:41:08;;;;;;;15.50;9.00;;;;;;;;;;103660;1292;544851;-71
2024/01/14 14:44:46;;;;;;;20.70;9.50;;;;;;;;;;103713;1291;545741;-73
2024/01/14 14:48:22;;;;;;;11.70;5.40;;;;;;;;;;103719;1292;545026;-73
2024/01/14 14:52:01;;;;;;;23.70;15.00;;;;;;;;;;103978;1289;545021;-73
2024/01/14 14:55:39;;;;;;;20.20;12.10;;;;;;;;;;103632;1291;544919;-72
2024/01/14 14:59:16;;;;;;;11.10;6.50;;;;;;;;;;103801;1289;544811;-72
2024/01/14 15:02:53;;;;;;;22.00;10.70;;;;;;;;;;103754;1292;545462;-72
2024/01/14 15:06:36;;;;;;;14.00;6.70;;;;;;;;;;103577;1292;548111;-72
2024/01/14 15:10:15;;;;;;;44.80;26.50;;;;;;;;;;103587;1290;547998;-73
2024/01/14 15:13:46;;;;;;;17.80;11.80;;;;;;;;;;103996;1292;545445;-72
2024/01/14 15:17:23;;;;;;;16.00;8.10;;;;;;;;;;103701;1289;544779;-72
2024/01/14 15:20:57;;;;;;;28.40;13.80;;;;;;;;;;103854;1289;544780;-73
2024/01/14 15:24:38;;;;;;;20.40;10.50;;;;;;;;;;103766;1294;545542;-71
2024/01/14 15:28:12;;;;;;;17.10;8.80;;;;;;;;;;103887;1288;545377;-72
2024/01/14 15:31:52;;;;;;;28.10;13.60;;;;;;;;;;103791;1289;544998;-73
2024/01/14 15:35:31;;;;;;;14.90;7.70;;;;;;;;;;103847;1292;545073;-72
2024/01/14 15:39:08;;;;;;;33.50;16.70;;;;;;;;;;103775;1296;545858;-74
2024/01/14 15:42:46;;;;;;;15.60;7.80;;;;;;;;;;104342;1283;544985;-73
2024/01/14 15:46:23;;;;;;;25.20;11.10;;;;;;;;;;103576;1302;545515;-72
2024/01/14 15:50:01;;;;;;;11.90;6.40;;;;;;;;;;103812;1288;545473;-73
2024/01/14 15:53:38;;;;;;;17.70;9.40;;;;;;;;;;103704;1291;544791;-71
2024/01/14 15:57:16;;;;;;;13.20;6.70;;;;;;;;;;103626;1293;544938;-73
2024/01/14 16:00:53;;;;;;;64.10;33.80;;;;;;;;;;103690;1292;546040;-71
2024/01/14 16:04:31;;;;;;;14.40;7.70;;;;;;;;;;103611;1291;544626;-73
2024/01/14 16:08:08;;;;;;;19.80;9.30;;;;;;;;;;103507;1292;545094;-72
2024/01/14 16:11:46;;;;;;;16.70;7.80;;;;;;;;;;103692;1292;544804;-74
2024/01/14 16:15:23;;;;;;;12.80;6.30;;;;;;;;;;104008;1292;545003;-72
2024/01/14 16:19:00;;;;;;;20.50;11.60;;;;;;;;;;103770;1289;545665;-71
2024/01/14 16:22:38;;;;;;;12.80;6.90;;;;;;;;;;103621;1291;544975;-73
2024/01/14 16:26:15;;;;;;;29.40;11.60;;;;;;;;;;103813;1294;545352;-73
2024/01/14 16:29:52;;;;;;;31.50;10.40;;;;;;;;;;103664;1291;545229;-73
2024/01/14 16:33:31;;;;;;;20.30;9.00;;;;;;;;;;104245;1288;544964;-73
2024/01/14 16:37:13;;;;;;;11.30;5.20;;;;;;;;;;104084;1285;548152;-75
2024/01/14 16:40:48;;;;;;;13.60;6.10;;;;;;;;;;103790;1289;545652;-72
2024/01/14 16:44:24;;;;;;;12.70;6.70;;;;;;;;;;103711;1290;545646;-72
2024/01/14 16:48:00;;;;;;;9.70;5.20;;;;;;;;;;103743;1290;545042;-71
2024/01/14 16:51:36;;;;;;;8.90;4.60;;;;;;;;;;103764;1288;544992;-75
2024/01/14 16:55:20;;;;;;;12.00;7.30;;;;;;;;;;103630;1291;548383;-72
2024/01/14 16:58:52;;;;;;;22.70;12.30;;;;;;;;;;103741;1289;544962;-72
2024/01/14 17:02:31;;;;;;;21.20;13.30;;;;;;;;;;103725;1288;544755;-71
2024/01/14 17:06:07;;;;;;;16.40;9.00;;;;;;;;;;103432;1294;545716;-72
2024/01/14 17:09:52;;;;;;;23.00;13.40;;;;;;;;;;103525;1296;547895;-71
2024/01/14 17:13:21;;;;;;;25.90;14.70;;;;;;;;;;103711;1292;545020;-72
2024/01/14 17:16:59;;;;;;;51.70;28.60;;;;;;;;;;103743;1295;545021;-72
2024/01/14 17:20:38;;;;;;;41.70;20.70;;;;;;;;;;103718;1291;544758;-72
2024/01/14 17:24:16;;;;;;;15.80;9.90;;;;;;;;;;103724;1291;544739;-71
2024/01/14 17:27:55;;;;;;;13.10;7.60;;;;;;;;;;104016;1292;544688;-73
2024/01/14 17:31:31;;;;;;;14.20;9.70;;;;;;;;;;103922;1289;544839;-72
2024/01/14 17:35:09;;;;;;;13.80;8.80;;;;;;;;;;103766;1291;545672;-74
2024/01/14 17:38:50;;;;;;;19.80;15.40;;;;;;;;;;103572;1291;547814;-74
2024/01/14 17:42:21;;;;;;;13.20;7.10;;;;;;;;;;103690;1289;544971;-72
2024/01/14 17:46:00;;;;;;;45.60;18.60;;;;;;;;;;103656;1295;544972;-71
2024/01/14 17:49:38;;;;;;;119.30;44.90;;;;;;;;;;103795;1290;546021;-72
2024/01/14 17:53:21;;;;;;;55.40;25.70;;;;;;;;;;103539;1292;548106;-73
2024/01/14 17:56:52;;;;;;;35.40;18.10;;;;;;;;;;103696;1295;545913;-71
2024/01/14 18:00:30;;;;;;;13.50;6.80;;;;;;;;;;103770;1289;545346;-73
2024/01/14 18:04:06;;;;;;;12.90;6.40;;;;;;;;;;103633;1291;544835;-73
2024/01/14 18:07:44;;;;;;;12.50;7.10;;;;;;;;;;103799;1294;544957;-71
2024/01/14 18:11:21;;;;;;;11.90;6.60;;;;;;;;;;103804;1288;545307;-71
2024/01/14 18:14:59;;;;;;;10.80;5.00;;;;;;;;;;103726;1295;545037;-73
2024/01/14 18:18:38;;;;;;;15.00;6.80;;;;;;;;;;103684;1292;545626;-72
2024/01/14 18:22:11;;;;;;;12.80;6.30;;;;;;;;;;103789;1289;545765;-73
2024/01/14 18:25:51;;;;;;;15.60;6.90;;;;;;;;;;103718;1292;544944;-73
2024/01/14 18:29:30;;;;;;;13.80;7.60;;;;;;;;;;103688;1289;544803;-72
2024/01/14 18:33:06;;;;;;;19.50;8.90;;;;;;;;;;103754;1291;545500;-71
2024/01/14 18:36:44;;;;;;;11.60;5.00;;;;;;;;;;103771;1301;545054;-75
2024/01/14 18:40:20;;;;;;;29.70;16.20;;;;;;;;;;103761;1289;545069;-73
2024/01/14 18:44:00;;;;;;;15.70;6.90;;;;;;;;;;103786;1290;545674;-72
2024/01/14 18:47:42;;;;;;;13.60;7.00;;;;;;;;;;103291;1294;547969;-72
2024/01/14 18:51:14;;;;;;;12.90;6.30;;;;;;;;;;103720;1291;544983;-72
2024/01/14 18:54:51;;;;;;;29.30;16.60;;;;;;;;;;103622;1291;546778;-71
2024/01/14 18:58:29;;;;;;;12.90;6.50;;;;;;;;;;104084;1289;544858;-71
2024/01/14 19:02:11;;;;;;;16.40;7.40;;;;;;;;;;103416;1291;546461;-73
2024/01/14 19:05:46;;;;;;;13.30;6.90;;;;;;;;;;103663;1293;544863;-75
2024/01/14 19:09:21;;;;;;;21.20;10.20;;;;;;;;;;103687;1289;544890;-72
2024/01/14 19:13:00;;;;;;;21.50;12.40;;;;;;;;;;103867;1289;545830;-72
2024/01/14 19:16:35;;;;;;;16.80;9.40;;;;;;;;;;103611;1303;544969;-72
2024/01/14 19:20:13;;;;;;;22.40;11.30;;;;;;;;;;103762;1289;545833;-73
2024/01/14 19:23:54;;;;;;;18.90;9.80;;;;;;;;;;103675;1295;544970;-71
2024/01/14 19:27:29;;;;;;;21.80;11.10;;;;;;;;;;103634;1291;545314;-72
2024/01/14 19:31:05;;;;;;;20.10;10.20;;;;;;;;;;103744;1289;545032;-71
2024/01/14 19:34:43;;;;;;;22.50;10.80;;;;;;;;;;103705;1295;546342;-72
2024/01/14 19:38:20;;;;;;;26.20;13.70;;;;;;;;;;103687;1293;545047;-71
2024/01/14 19:41:59;;;;;;;26.20;14.80;;;;;;;;;;103741;1295;545697;-71
2024/01/14 19:45:35;;;;;;;29.50;15.60;;;;;;;;;;103673;1292;544953;-70
2024/01/14 19:49:09;;;;;;;30.90;15.30;;;;;;;;;;103803;1288;545798;-71
2024/01/14 19:52:50;;;;;;;19.60;9.80;;;;;;;;;;103793;1289;545359;-72
2024/01/14 19:56:28;;;;;;;21.80;10.90;;;;;;;;;;104047;1288;544901;-71
2024/01/14 20:00:09;;;;;;;31.30;14.90;;;;;;;;;;104081;1288;545651;-74
2024/01/14 20:03:48;;;;;;;27.20;13.40;;;;;;;;;;103626;1303;546229;-71
2024/01/14 20:07:16;;;;;;;30.20;14.70;;;;;;;;;;103946;1289;545330;-71
2024/01/14 20:11:04;;;;;;;22.70;13.00;;;;;;;;;;103568;1296;547830;-75
2024/01/14 20:14:38;;;;;;;17.40;10.60;;;;;;;;;;103810;1293;544821;-72
2024/01/14 20:18:14;;;;;;;17.00;10.90;;;;;;;;;;103675;1292;544904;-71
2024/01/14 20:21:50;;;;;;;15.30;9.00;;;;;;;;;;103807;1288;544822;-71
2024/01/14 20:25:29;;;;;;;16.60;9.80;;;;;;;;;;103509;1295;544962;-72
2024/01/14 20:29:01;;;;;;;17.30;9.60;;;;;;;;;;103768;1291;545192;-72
2024/01/14 20:32:43;;;;;;;15.40;8.30;;;;;;;;;;103808;1288;545914;-71
2024/01/14 20:36:19;;;;;;;19.40;9.70;;;;;;;;;;104021;1291;544900;-71
2024/01/14 20:39:58;;;;;;;23.60;12.30;;;;;;;;;;103752;1292;544918;-72
2024/01/14 20:43:35;;;;;;;23.30;13.30;;;;;;;;;;103813;1289;545418;-74
2024/01/14 20:47:13;;;;;;;25.60;13.40;;;;;;;;;;103711;1292;545150;-71
2024/01/14 20:50:50;;;;;;;23.50;11.80;;;;;;;;;;103835;1295;546197;-72